Time;durP1;ratioP1;P1;durP2;ratioP2;P2;SDS_P1;SDS_P2;PMS_P1;PMS_P2;Temp;Humidity;BMP_temperature;BMP_pressure;BME280_temperature;BME280_humidity;BME280_pressure;Samples;Min_cycle;Max_cycle;Signal;HPM_P1;HPM_P2
2023/04/22 00:00:01;;;;;;;4.60;2.45;;;;;;;;;;5054150;28;20035;-64
2023/04/22 00:02:28;;;;;;;7.00;2.65;;;;;;;;;;5053761;28;20017;-65
2023/04/22 00:04:56;;;;;;;7.88;2.40;;;;;;;;;;5054118;28;20432;-65
2023/04/22 00:07:22;;;;;;;8.70;2.55;;;;;;;;;;5053619;28;20024;-64
2023/04/22 00:09:48;;;;;;;7.32;2.42;;;;;;;;;;5053658;28;20029;-64
2023/04/22 00:12:15;;;;;;;7.88;2.40;;;;;;;;;;5053834;28;20029;-65
2023/04/22 00:14:41;;;;;;;5.75;2.40;;;;;;;;;;5053211;28;20039;-64
2023/04/22 00:17:07;;;;;;;7.57;2.50;;;;;;;;;;5053765;28;20535;-64
2023/04/22 00:19:34;;;;;;;7.70;2.90;;;;;;;;;;5053988;28;20037;-64
2023/04/22 00:22:00;;;;;;;5.68;2.45;;;;;;;;;;5053451;28;20025;-64
2023/04/22 00:24:27;;;;;;;7.10;2.55;;;;;;;;;;5053505;28;20033;-65
2023/04/22 00:26:53;;;;;;;6.15;2.40;;;;;;;;;;5053396;28;20029;-64
2023/04/22 00:29:19;;;;;;;7.95;2.80;;;;;;;;;;5053381;28;20049;-64
2023/04/22 00:31:46;;;;;;;4.78;2.50;;;;;;;;;;5053349;28;20050;-65
2023/04/22 00:34:12;;;;;;;4.55;2.45;;;;;;;;;;5053644;28;20041;-64
2023/04/22 00:36:38;;;;;;;6.47;2.67;;;;;;;;;;5053199;28;20023;-65
2023/04/22 00:39:05;;;;;;;8.18;2.60;;;;;;;;;;5053198;28;20033;-64
2023/04/22 00:41:31;;;;;;;9.77;2.80;;;;;;;;;;5053182;28;20017;-65
2023/04/22 00:43:58;;;;;;;9.68;2.65;;;;;;;;;;5053125;28;20400;-64
2023/04/22 00:46:25;;;;;;;7.85;2.47;;;;;;;;;;5053149;28;20029;-64
2023/04/22 00:48:52;;;;;;;7.25;2.65;;;;;;;;;;5053021;28;20013;-64
2023/04/22 00:51:18;;;;;;;7.93;2.78;;;;;;;;;;5052903;28;20025;-65
2023/04/22 00:53:44;;;;;;;6.93;2.55;;;;;;;;;;5053205;28;20040;-64
2023/04/22 00:56:11;;;;;;;5.55;2.33;;;;;;;;;;5052841;28;20027;-65
2023/04/22 00:58:37;;;;;;;9.13;2.70;;;;;;;;;;5052789;28;20031;-64
2023/04/22 01:01:04;;;;;;;7.43;2.70;;;;;;;;;;5052916;28;20181;-64
2023/04/22 01:03:31;;;;;;;6.70;2.70;;;;;;;;;;5052972;28;20025;-65
2023/04/22 01:05:58;;;;;;;8.52;2.72;;;;;;;;;;5052952;28;20017;-64
2023/04/22 01:08:28;;;;;;;7.35;2.78;;;;;;;;;;5052668;28;20062;-64
2023/04/22 01:10:55;;;;;;;11.80;2.88;;;;;;;;;;5053019;28;20027;-65
2023/04/22 01:13:21;;;;;;;7.30;2.90;;;;;;;;;;5052670;28;20017;-65
2023/04/22 01:15:47;;;;;;;6.45;2.88;;;;;;;;;;5052975;28;20411;-64
2023/04/22 01:18:14;;;;;;;12.95;3.45;;;;;;;;;;5052681;28;20492;-64
2023/04/22 01:20:41;;;;;;;9.60;3.30;;;;;;;;;;5052243;28;20029;-64
2023/04/22 01:23:09;;;;;;;9.80;3.45;;;;;;;;;;5052500;28;20021;-64
2023/04/22 01:25:35;;;;;;;11.88;3.33;;;;;;;;;;5051528;28;20021;-64
2023/04/22 01:28:02;;;;;;;9.25;3.45;;;;;;;;;;5052059;28;20043;-65
2023/04/22 01:30:28;;;;;;;6.28;3.13;;;;;;;;;;5052141;28;20048;-65
2023/04/22 01:32:54;;;;;;;7.45;3.15;;;;;;;;;;5052971;28;20043;-64
2023/04/22 01:35:21;;;;;;;8.88;3.33;;;;;;;;;;5052439;28;20037;-64
2023/04/22 01:37:47;;;;;;;8.05;3.58;;;;;;;;;;5052270;28;20027;-64
2023/04/22 01:40:18;;;;;;;13.93;3.05;;;;;;;;;;5052217;28;20382;-64
2023/04/22 01:42:44;;;;;;;;;;;;;;;;;;5053211;28;20078;-64
2023/04/22 01:45:12;;;;;;;13.93;3.58;;;;;;;;;;5052306;28;19908;-64
2023/04/22 01:47:38;;;;;;;5.97;3.25;;;;;;;;;;5052165;28;20587;-64
2023/04/22 01:50:04;;;;;;;7.93;3.70;;;;;;;;;;5051950;28;20040;-64
2023/04/22 01:52:31;;;;;;;10.68;3.50;;;;;;;;;;5052196;28;20028;-64
2023/04/22 01:54:57;;;;;;;8.00;3.08;;;;;;;;;;5052014;28;20040;-64
2023/04/22 01:57:24;;;;;;;8.68;3.22;;;;;;;;;;5052017;28;20018;-65
2023/04/22 01:59:50;;;;;;;10.20;3.50;;;;;;;;;;5052442;28;20299;-64
2023/04/22 02:02:16;;;;;;;7.53;3.25;;;;;;;;;;5051819;28;20017;-64
2023/04/22 02:04:42;;;;;;;7.07;2.75;;;;;;;;;;5051845;28;20494;-64
2023/04/22 02:07:09;;;;;;;9.02;3.15;;;;;;;;;;5052046;28;20025;-64
2023/04/22 02:09:35;;;;;;;9.05;3.35;;;;;;;;;;5051885;28;20023;-62
2023/04/22 02:12:01;;;;;;;9.73;3.22;;;;;;;;;;5051849;28;20023;-62
2023/04/22 02:14:28;;;;;;;10.63;3.40;;;;;;;;;;5051827;28;20033;-64
2023/04/22 02:16:54;;;;;;;4.65;2.72;;;;;;;;;;5050505;28;20031;-64
2023/04/22 02:19:20;;;;;;;11.60;3.58;;;;;;;;;;5051766;28;20026;-64
2023/04/22 02:21:47;;;;;;;10.48;2.95;;;;;;;;;;5051660;28;20043;-65
2023/04/22 02:24:13;;;;;;;9.18;3.05;;;;;;;;;;5051977;28;20033;-64
2023/04/22 02:26:40;;;;;;;7.18;2.88;;;;;;;;;;5051725;28;20013;-65
2023/04/22 02:29:06;;;;;;;8.95;3.00;;;;;;;;;;5051598;28;20078;-65
2023/04/22 02:31:33;;;;;;;7.95;3.28;;;;;;;;;;5051740;28;20373;-64
2023/04/22 02:33:59;;;;;;;11.52;3.45;;;;;;;;;;5051502;28;20041;-64
2023/04/22 02:36:26;;;;;;;10.88;3.10;;;;;;;;;;5053154;28;20031;-64
2023/04/22 02:38:53;;;;;;;9.80;3.35;;;;;;;;;;5055758;28;20022;-64
2023/04/22 02:41:19;;;;;;;10.50;3.63;;;;;;;;;;5055623;28;20013;-65
2023/04/22 02:43:46;;;;;;;12.13;3.50;;;;;;;;;;5055528;28;20037;-64
2023/04/22 02:46:14;;;;;;;8.80;3.53;;;;;;;;;;5055632;28;20029;-64
2023/04/22 02:48:41;;;;;;;8.32;3.53;;;;;;;;;;5055441;28;20397;-64
2023/04/22 02:51:08;;;;;;;10.93;2.95;;;;;;;;;;5055451;28;20024;-65
2023/04/22 02:53:35;;;;;;;9.73;3.22;;;;;;;;;;5055270;28;20401;-64
2023/04/22 02:56:01;;;;;;;11.10;3.10;;;;;;;;;;5055504;28;20055;-64
2023/04/22 02:58:27;;;;;;;8.93;3.60;;;;;;;;;;5055194;28;20024;-64
2023/04/22 03:00:55;;;;;;;11.38;3.20;;;;;;;;;;5054829;28;20029;-64
2023/04/22 03:03:22;;;;;;;8.40;3.17;;;;;;;;;;5053816;28;20037;-64
2023/04/22 03:05:48;;;;;;;9.32;3.20;;;;;;;;;;5055020;28;20021;-64
2023/04/22 03:08:14;;;;;;;9.57;3.33;;;;;;;;;;5053937;28;20033;-64
2023/04/22 03:10:41;;;;;;;9.77;3.30;;;;;;;;;;5054953;28;20393;-65
2023/04/22 03:13:07;;;;;;;11.23;3.10;;;;;;;;;;5055046;28;20055;-64
2023/04/22 03:15:33;;;;;;;7.90;3.25;;;;;;;;;;5054686;28;20086;-65
2023/04/22 03:17:59;;;;;;;8.20;3.25;;;;;;;;;;5054944;28;20023;-64
2023/04/22 03:20:26;;;;;;;11.68;3.00;;;;;;;;;;5054894;28;20021;-64
2023/04/22 03:22:52;;;;;;;9.25;3.65;;;;;;;;;;5055448;28;20033;-65
2023/04/22 03:25:18;;;;;;;8.00;3.20;;;;;;;;;;5054774;28;20032;-64
2023/04/22 03:27:45;;;;;;;8.63;3.13;;;;;;;;;;5054965;28;20029;-64
2023/04/22 03:30:11;;;;;;;10.70;3.45;;;;;;;;;;5054308;28;20052;-64
2023/04/22 03:32:37;;;;;;;8.45;3.17;;;;;;;;;;5054632;28;20025;-65
2023/04/22 03:35:04;;;;;;;7.63;3.30;;;;;;;;;;5054634;28;20037;-64
2023/04/22 03:37:30;;;;;;;9.07;3.20;;;;;;;;;;5054484;28;20033;-65
2023/04/22 03:39:56;;;;;;;9.50;3.47;;;;;;;;;;5054260;28;20389;-65
2023/04/22 03:42:23;;;;;;;14.88;4.10;;;;;;;;;;5053271;28;20021;-65
2023/04/22 03:44:49;;;;;;;9.77;3.08;;;;;;;;;;5054313;28;20039;-65
2023/04/22 03:47:15;;;;;;;10.02;3.42;;;;;;;;;;5053772;28;20385;-64
2023/04/22 03:49:42;;;;;;;8.70;3.67;;;;;;;;;;5053544;28;20094;-64
2023/04/22 03:52:08;;;;;;;10.23;3.22;;;;;;;;;;5054049;28;20027;-65
2023/04/22 03:54:34;;;;;;;11.10;3.55;;;;;;;;;;5054126;28;20037;-64
2023/04/22 03:57:01;;;;;;;8.32;3.33;;;;;;;;;;5054304;28;20025;-64
2023/04/22 03:59:28;;;;;;;8.20;3.00;;;;;;;;;;5053723;28;20375;-64
2023/04/22 04:01:54;;;;;;;8.30;3.40;;;;;;;;;;5054136;28;20025;-64
2023/04/22 04:04:22;;;;;;;9.88;3.30;;;;;;;;;;5054371;28;20021;-64
2023/04/22 04:06:48;;;;;;;8.75;3.17;;;;;;;;;;5054475;28;20078;-65
2023/04/22 04:09:15;;;;;;;9.15;3.20;;;;;;;;;;5053961;28;20033;-64
2023/04/22 04:11:41;;;;;;;8.40;3.13;;;;;;;;;;5053848;28;20063;-64
2023/04/22 04:14:08;;;;;;;9.30;3.10;;;;;;;;;;5053521;28;20508;-65
2023/04/22 04:16:34;;;;;;;9.55;3.03;;;;;;;;;;5053572;28;20497;-64
2023/04/22 04:19:01;;;;;;;14.02;3.63;;;;;;;;;;5053713;28;20025;-64
2023/04/22 04:21:28;;;;;;;11.18;3.60;;;;;;;;;;5053844;28;20200;-64
2023/04/22 04:23:55;;;;;;;7.50;3.08;;;;;;;;;;5053490;28;20021;-64
2023/04/22 04:26:22;;;;;;;11.65;3.20;;;;;;;;;;5053722;28;20033;-64
2023/04/22 04:28:49;;;;;;;10.73;3.30;;;;;;;;;;5053007;28;20505;-64
2023/04/22 04:31:15;;;;;;;11.90;3.05;;;;;;;;;;5053327;28;20107;-64
2023/04/22 04:33:42;;;;;;;8.48;3.03;;;;;;;;;;5053536;28;20400;-64
2023/04/22 04:36:09;;;;;;;7.25;2.67;;;;;;;;;;5053282;28;20067;-64
2023/04/22 04:38:35;;;;;;;7.65;3.03;;;;;;;;;;5053512;28;20025;-64
2023/04/22 04:41:02;;;;;;;8.10;3.22;;;;;;;;;;5053465;28;20025;-64
2023/04/22 04:43:29;;;;;;;7.75;3.10;;;;;;;;;;5052861;28;20047;-65
2023/04/22 04:45:56;;;;;;;12.45;3.30;;;;;;;;;;5053047;28;20496;-64
2023/04/22 04:48:25;;;;;;;7.95;3.17;;;;;;;;;;5053162;28;20025;-64
2023/04/22 04:50:52;;;;;;;7.90;3.03;;;;;;;;;;5053348;28;20033;-64
2023/04/22 04:53:19;;;;;;;10.32;2.75;;;;;;;;;;5052930;28;20076;-65
2023/04/22 04:55:46;;;;;;;8.27;3.08;;;;;;;;;;5052932;28;20040;-64
2023/04/22 04:58:12;;;;;;;11.65;3.33;;;;;;;;;;5053195;28;20021;-64
2023/04/22 05:00:38;;;;;;;11.32;3.45;;;;;;;;;;5052517;28;20027;-64
2023/04/22 05:03:05;;;;;;;12.40;3.30;;;;;;;;;;5053001;28;20379;-64
2023/04/22 05:05:31;;;;;;;11.25;3.38;;;;;;;;;;5052635;28;20017;-64
2023/04/22 05:07:57;;;;;;;8.05;3.20;;;;;;;;;;5053039;28;20025;-64
2023/04/22 05:10:24;;;;;;;7.38;3.15;;;;;;;;;;5053167;28;20025;-64
2023/04/22 05:12:50;;;;;;;11.43;3.80;;;;;;;;;;5052929;28;20508;-64
2023/04/22 05:15:17;;;;;;;11.05;3.60;;;;;;;;;;5052640;28;20043;-64
2023/04/22 05:17:43;;;;;;;10.13;3.53;;;;;;;;;;5053100;28;20021;-65
2023/04/22 05:20:10;;;;;;;14.55;3.83;;;;;;;;;;5053759;28;20043;-64
2023/04/22 05:22:36;;;;;;;14.23;3.95;;;;;;;;;;5052546;28;20029;-64
2023/04/22 05:25:03;;;;;;;7.97;2.63;;;;;;;;;;5052762;28;20067;-64
2023/04/22 05:27:30;;;;;;;9.65;3.33;;;;;;;;;;5052267;28;20025;-65
2023/04/22 05:29:56;;;;;;;10.27;3.35;;;;;;;;;;5052454;28;20094;-64
2023/04/22 05:32:22;;;;;;;10.90;3.20;;;;;;;;;;5052583;28;20398;-64
2023/04/22 05:34:48;;;;;;;8.23;2.65;;;;;;;;;;5052295;28;20036;-64
2023/04/22 05:37:15;;;;;;;7.88;3.10;;;;;;;;;;5052336;28;20390;-64
2023/04/22 05:39:41;;;;;;;9.07;3.00;;;;;;;;;;5052274;28;20021;-64
2023/04/22 05:42:08;;;;;;;7.90;3.17;;;;;;;;;;5052667;28;20021;-64
2023/04/22 05:44:34;;;;;;;8.23;2.40;;;;;;;;;;5052450;28;20029;-64
2023/04/22 05:47:00;;;;;;;8.73;3.58;;;;;;;;;;5052204;28;20046;-64
2023/04/22 05:49:27;;;;;;;9.65;3.45;;;;;;;;;;5052067;28;20352;-64
2023/04/22 05:51:53;;;;;;;8.23;3.08;;;;;;;;;;5052047;28;20020;-64
2023/04/22 05:54:19;;;;;;;6.95;3.20;;;;;;;;;;5051780;28;20029;-64
2023/04/22 05:56:46;;;;;;;10.60;3.65;;;;;;;;;;5051993;28;20029;-63
2023/04/22 05:59:12;;;;;;;8.07;2.97;;;;;;;;;;5050805;28;20031;-64
2023/04/22 06:01:38;;;;;;;6.45;2.85;;;;;;;;;;5052014;28;20033;-64
2023/04/22 06:04:05;;;;;;;8.85;3.75;;;;;;;;;;5051875;28;20078;-64
2023/04/22 06:06:32;;;;;;;8.77;3.63;;;;;;;;;;5051848;28;20021;-65
2023/04/22 06:08:58;;;;;;;13.23;3.63;;;;;;;;;;5051929;28;20025;-64
2023/04/22 06:11:24;;;;;;;12.68;4.20;;;;;;;;;;5052873;28;20027;-64
2023/04/22 06:13:51;;;;;;;16.55;4.47;;;;;;;;;;5055895;28;20036;-64
2023/04/22 06:16:18;;;;;;;12.70;4.25;;;;;;;;;;5056683;28;20035;-63
2023/04/22 06:18:44;;;;;;;18.15;4.32;;;;;;;;;;5055908;28;20013;-64
2023/04/22 06:21:11;;;;;;;14.02;4.72;;;;;;;;;;5056166;28;20043;-64
2023/04/22 06:23:38;;;;;;;12.63;4.63;;;;;;;;;;5055781;28;20032;-64
2023/04/22 06:26:04;;;;;;;12.15;3.88;;;;;;;;;;5055915;28;20025;-64
2023/04/22 06:28:30;;;;;;;12.30;3.50;;;;;;;;;;5054254;28;20429;-64
2023/04/22 06:30:57;;;;;;;10.23;4.57;;;;;;;;;;5055764;28;20470;-64
2023/04/22 06:33:23;;;;;;;15.80;4.30;;;;;;;;;;5056338;28;20032;-64
2023/04/22 06:35:50;;;;;;;12.57;3.75;;;;;;;;;;5055927;28;20037;-64
2023/04/22 06:38:16;;;;;;;15.77;3.35;;;;;;;;;;5055375;28;20021;-64
2023/04/22 06:40:42;;;;;;;13.55;4.75;;;;;;;;;;5055954;28;20082;-64
2023/04/22 06:43:09;;;;;;;18.17;5.85;;;;;;;;;;5055544;28;20032;-63
2023/04/22 06:45:35;;;;;;;22.48;5.82;;;;;;;;;;5055479;28;20436;-64
2023/04/22 06:48:02;;;;;;;22.73;6.95;;;;;;;;;;5055585;28;20029;-65
2023/04/22 06:50:28;;;;;;;21.77;7.32;;;;;;;;;;5055439;28;20025;-64
2023/04/22 06:52:54;;;;;;;23.83;6.85;;;;;;;;;;5055448;28;20021;-63
2023/04/22 06:55:21;;;;;;;14.20;4.43;;;;;;;;;;5050698;28;20062;-63
2023/04/22 06:57:47;;;;;;;14.80;5.50;;;;;;;;;;5053723;28;20393;-63
2023/04/22 07:00:13;;;;;;;26.00;7.80;;;;;;;;;;5054021;28;20045;-63
2023/04/22 07:02:40;;;;;;;10.43;3.78;;;;;;;;;;5055362;28;20431;-63
2023/04/22 07:05:07;;;;;;;14.38;4.40;;;;;;;;;;5055132;28;20393;-63
2023/04/22 07:07:33;;;;;;;19.33;5.50;;;;;;;;;;5053951;28;20055;-63
2023/04/22 07:09:59;;;;;;;10.90;4.75;;;;;;;;;;5055007;28;20478;-62
2023/04/22 07:12:26;;;;;;;17.10;6.18;;;;;;;;;;5055226;28;20025;-63
2023/04/22 07:14:52;;;;;;;11.82;4.80;;;;;;;;;;5054759;28;20037;-63
2023/04/22 07:17:21;;;;;;;11.85;4.55;;;;;;;;;;5055132;28;20028;-63
2023/04/22 07:19:48;;;;;;;10.93;4.72;;;;;;;;;;5054937;28;20412;-63
2023/04/22 07:22:14;;;;;;;15.65;4.95;;;;;;;;;;5054503;28;20466;-63
2023/04/22 07:24:40;;;;;;;13.68;4.03;;;;;;;;;;5054870;28;20405;-63
2023/04/22 07:27:07;;;;;;;12.25;5.15;;;;;;;;;;5054887;28;20025;-64
2023/04/22 07:29:33;;;;;;;11.55;4.60;;;;;;;;;;5054813;28;20051;-63
2023/04/22 07:31:59;;;;;;;11.73;5.60;;;;;;;;;;5054841;28;20025;-63
2023/04/22 07:34:26;;;;;;;8.65;4.72;;;;;;;;;;5054731;28;20033;-63
2023/04/22 07:36:52;;;;;;;14.90;4.18;;;;;;;;;;5054583;28;20037;-63
2023/04/22 07:39:19;;;;;;;11.15;5.20;;;;;;;;;;5054479;28;20021;-64
2023/04/22 07:41:45;;;;;;;10.60;4.70;;;;;;;;;;5054726;28;20404;-63
2023/04/22 07:44:15;;;;;;;10.27;4.13;;;;;;;;;;5054383;28;20025;-63
2023/04/22 07:46:42;;;;;;;14.20;5.20;;;;;;;;;;5053091;28;20035;-64
2023/04/22 07:49:08;;;;;;;17.30;4.93;;;;;;;;;;5054207;28;20021;-64
2023/04/22 07:51:35;;;;;;;12.80;5.18;;;;;;;;;;5054072;28;20488;-64
2023/04/22 07:54:01;;;;;;;14.75;5.07;;;;;;;;;;5054469;28;20039;-64
2023/04/22 07:56:27;;;;;;;10.82;4.55;;;;;;;;;;5054294;28;20027;-64
2023/04/22 07:58:53;;;;;;;10.75;5.18;;;;;;;;;;5054335;28;20029;-63
2023/04/22 08:01:20;;;;;;;10.57;4.75;;;;;;;;;;5053977;28;20021;-64
2023/04/22 08:03:46;;;;;;;8.32;3.55;;;;;;;;;;5052805;28;20047;-64
2023/04/22 08:06:13;;;;;;;19.95;4.95;;;;;;;;;;5053991;28;20025;-63
2023/04/22 08:08:39;;;;;;;10.07;3.35;;;;;;;;;;5054224;28;20029;-64
2023/04/22 08:11:06;;;;;;;13.27;4.80;;;;;;;;;;5053964;28;20033;-63
2023/04/22 08:13:33;;;;;;;11.23;4.18;;;;;;;;;;5053077;28;20025;-63
2023/04/22 08:16:02;;;;;;;16.58;4.68;;;;;;;;;;5054046;28;20107;-63
2023/04/22 08:18:28;;;;;;;11.13;3.95;;;;;;;;;;5053659;28;20036;-63
2023/04/22 08:20:55;;;;;;;11.63;4.60;;;;;;;;;;5054168;28;20035;-63
2023/04/22 08:23:22;;;;;;;14.50;4.85;;;;;;;;;;5054217;28;20020;-63
2023/04/22 08:25:48;;;;;;;16.17;5.20;;;;;;;;;;5053679;28;20498;-63
2023/04/22 08:28:15;;;;;;;10.68;4.55;;;;;;;;;;5053918;28;20036;-63
2023/04/22 08:30:41;;;;;;;12.82;4.35;;;;;;;;;;5054016;28;20040;-63
2023/04/22 08:33:07;;;;;;;12.57;4.43;;;;;;;;;;5053586;28;20401;-63
2023/04/22 08:35:35;;;;;;;11.82;4.60;;;;;;;;;;5053005;28;20029;-63
2023/04/22 08:38:01;;;;;;;15.50;4.95;;;;;;;;;;5053593;28;20031;-64
2023/04/22 08:40:28;;;;;;;11.65;4.85;;;;;;;;;;5053460;28;20021;-63
2023/04/22 08:42:55;;;;;;;22.98;5.75;;;;;;;;;;5053632;28;20444;-64
2023/04/22 08:45:22;;;;;;;9.57;3.10;;;;;;;;;;5053771;28;20036;-63
2023/04/22 08:47:49;;;;;;;18.55;5.63;;;;;;;;;;5053255;28;20017;-64
2023/04/22 08:50:15;;;;;;;13.23;5.00;;;;;;;;;;5052121;28;20021;-63
2023/04/22 08:52:42;;;;;;;10.82;4.82;;;;;;;;;;5052992;28;20025;-63
2023/04/22 08:55:08;;;;;;;16.92;5.00;;;;;;;;;;5053087;28;20033;-64
2023/04/22 08:57:35;;;;;;;7.80;3.95;;;;;;;;;;5053073;28;20462;-63
2023/04/22 09:00:03;;;;;;;8.30;3.72;;;;;;;;;;5053491;28;20032;-64
2023/04/22 09:02:31;;;;;;;12.18;4.05;;;;;;;;;;5053128;28;20024;-63
2023/04/22 09:04:57;;;;;;;13.10;4.45;;;;;;;;;;5053278;28;20035;-63
2023/04/22 09:07:26;;;;;;;11.13;3.15;;;;;;;;;;5052954;28;20055;-63
2023/04/22 09:09:54;;;;;;;8.48;3.33;;;;;;;;;;5053034;28;20021;-63
2023/04/22 09:12:20;;;;;;;9.35;3.60;;;;;;;;;;5053128;28;20082;-63
2023/04/22 09:14:47;;;;;;;9.25;3.50;;;;;;;;;;5052683;28;20039;-63
2023/04/22 09:17:17;;;;;;;7.03;3.15;;;;;;;;;;5052871;28;20028;-63
2023/04/22 09:19:44;;;;;;;8.00;3.40;;;;;;;;;;5052834;28;20085;-63
2023/04/22 09:22:13;;;;;;;9.90;3.58;;;;;;;;;;5052504;28;20043;-64
2023/04/22 09:24:43;;;;;;;8.05;3.08;;;;;;;;;;5052755;28;20009;-63
2023/04/22 09:27:10;;;;;;;6.82;3.22;;;;;;;;;;5053303;28;20013;-63
2023/04/22 09:29:36;;;;;;;9.05;3.53;;;;;;;;;;5052713;28;20036;-63
2023/04/22 09:32:10;;;;;;;9.13;3.20;;;;;;;;;;5052812;28;20029;-64
2023/04/22 09:34:44;;;;;;;9.35;3.25;;;;;;;;;;5052534;28;20033;-63
2023/04/22 09:37:12;;;;;;;5.15;2.78;;;;;;;;;;5052922;28;20025;-64
2023/04/22 09:39:41;;;;;;;15.35;3.42;;;;;;;;;;5053162;28;20024;-63
2023/04/22 09:42:08;;;;;;;10.35;3.55;;;;;;;;;;5053091;28;20021;-63
2023/04/22 09:44:34;;;;;;;8.05;2.95;;;;;;;;;;5053558;28;20071;-64
2023/04/22 09:47:00;;;;;;;9.30;2.97;;;;;;;;;;5052059;28;20009;-64
2023/04/22 09:49:27;;;;;;;9.57;2.70;;;;;;;;;;5052671;28;20405;-63
2023/04/22 09:51:59;;;;;;;9.70;3.20;;;;;;;;;;5052291;28;20020;-64
2023/04/22 09:54:25;;;;;;;10.57;3.70;;;;;;;;;;5052354;28;20033;-63
2023/04/22 09:56:52;;;;;;;8.75;3.20;;;;;;;;;;5052221;28;20066;-63
2023/04/22 09:59:20;;;;;;;7.10;3.08;;;;;;;;;;5052721;28;20029;-63
2023/04/22 10:01:47;;;;;;;7.47;2.97;;;;;;;;;;5052148;28;20102;-63
2023/04/22 10:04:14;;;;;;;9.98;3.83;;;;;;;;;;5052153;28;20025;-63
2023/04/22 10:06:41;;;;;;;8.48;3.28;;;;;;;;;;5052360;28;20024;-63
2023/04/22 10:09:08;;;;;;;11.65;3.40;;;;;;;;;;5052199;28;20101;-64
2023/04/22 10:11:34;;;;;;;10.07;3.50;;;;;;;;;;5052133;28;20031;-64
2023/04/22 10:14:01;;;;;;;7.90;3.80;;;;;;;;;;5052287;28;20375;-63
2023/04/22 10:16:30;;;;;;;8.73;3.83;;;;;;;;;;5051698;28;20035;-63
2023/04/22 10:18:58;;;;;;;12.18;3.40;;;;;;;;;;5052245;28;20025;-64
2023/04/22 10:21:25;;;;;;;10.50;3.30;;;;;;;;;;5052206;28;20021;-63
2023/04/22 10:23:51;;;;;;;12.50;4.90;;;;;;;;;;5052030;28;20021;-64
2023/04/22 10:26:37;;;;;;;9.50;4.13;;;;;;;;;;5052216;28;20486;-63
2023/04/22 10:29:05;;;;;;;6.50;3.08;;;;;;;;;;5051945;28;20115;-64
2023/04/22 10:31:32;;;;;;;11.55;3.50;;;;;;;;;;5052023;28;20405;-64
2023/04/22 10:34:14;;;;;;;7.72;3.20;;;;;;;;;;5051861;28;20035;-64
2023/04/22 10:36:52;;;;;;;8.88;3.72;;;;;;;;;;5051844;28;20074;-64
2023/04/22 10:39:20;;;;;;;14.00;4.25;;;;;;;;;;5050654;28;20022;-63
2023/04/22 10:41:54;;;;;;;11.55;3.25;;;;;;;;;;5051716;28;20043;-64
2023/04/22 10:44:21;;;;;;;11.40;3.10;;;;;;;;;;5051559;28;20021;-64
2023/04/22 10:46:51;;;;;;;15.65;3.15;;;;;;;;;;5051592;28;20044;-63
2023/04/22 10:49:24;;;;;;;10.15;2.70;;;;;;;;;;5052068;28;20031;-63
2023/04/22 10:51:52;;;;;;;4.57;2.88;;;;;;;;;;5051646;28;20435;-64
2023/04/22 10:54:27;;;;;;;6.88;2.70;;;;;;;;;;5052244;28;20025;-63
2023/04/22 10:57:10;;;;;;;7.90;3.05;;;;;;;;;;5052541;28;20039;-64
2023/04/22 10:59:45;;;;;;;5.53;3.05;;;;;;;;;;5055101;28;20020;-64
2023/04/22 11:02:13;;;;;;;7.50;3.00;;;;;;;;;;5055488;28;20043;-64
2023/04/22 11:04:39;;;;;;;9.38;2.80;;;;;;;;;;5056496;28;20031;-63
2023/04/22 11:07:19;;;;;;;6.45;2.53;;;;;;;;;;5055314;28;20082;-63
2023/04/22 11:09:49;;;;;;;5.80;3.00;;;;;;;;;;5055572;28;20028;-64
2023/04/22 11:12:37;;;;;;;6.45;2.60;;;;;;;;;;5055491;28;20047;-64
2023/04/22 11:15:06;;;;;;;5.90;2.88;;;;;;;;;;5055166;28;20029;-63
2023/04/22 11:17:33;;;;;;;5.05;2.65;;;;;;;;;;5055392;28;20021;-64
2023/04/22 11:20:00;;;;;;;6.47;2.47;;;;;;;;;;5055479;28;20025;-64
2023/04/22 11:22:26;;;;;;;7.57;2.92;;;;;;;;;;5054817;28;20036;-63
2023/04/22 11:24:54;;;;;;;5.43;2.63;;;;;;;;;;5055241;28;20021;-63
2023/04/22 11:27:25;;;;;;;9.20;2.47;;;;;;;;;;5054716;28;20025;-64
2023/04/22 11:30:07;;;;;;;7.82;2.60;;;;;;;;;;5054561;28;20043;-64
2023/04/22 11:32:34;;;;;;;4.75;2.55;;;;;;;;;;5054582;28;20035;-63
2023/04/22 11:35:05;;;;;;;7.28;2.80;;;;;;;;;;5055084;28;20033;-63
2023/04/22 11:37:31;;;;;;;6.70;3.33;;;;;;;;;;5054666;28;20027;-64
2023/04/22 11:40:01;;;;;;;8.48;2.65;;;;;;;;;;5054850;28;20029;-64
2023/04/22 11:42:27;;;;;;;7.37;2.97;;;;;;;;;;5055440;28;20035;-64
2023/04/22 11:44:54;;;;;;;9.80;2.70;;;;;;;;;;5054534;28;20498;-64
2023/04/22 11:47:20;;;;;;;10.75;3.20;;;;;;;;;;5055051;28;20025;-64
2023/04/22 11:49:57;;;;;;;4.03;2.30;;;;;;;;;;5054435;28;20359;-64
2023/04/22 11:52:25;;;;;;;5.28;2.40;;;;;;;;;;5054492;28;20078;-64
2023/04/22 11:54:51;;;;;;;6.85;2.72;;;;;;;;;;5054259;28;20040;-64
2023/04/22 11:57:20;;;;;;;12.80;2.95;;;;;;;;;;5054147;28;20029;-64
2023/04/22 11:59:57;;;;;;;5.43;2.42;;;;;;;;;;5054174;28;20036;-63
2023/04/22 12:02:24;;;;;;;8.20;2.72;;;;;;;;;;5054513;28;20027;-64
2023/04/22 12:04:51;;;;;;;7.13;2.85;;;;;;;;;;5054292;28;20085;-64
2023/04/22 12:07:17;;;;;;;7.10;2.47;;;;;;;;;;5054341;28;20090;-64
2023/04/22 12:09:43;;;;;;;8.70;3.42;;;;;;;;;;5053589;28;20017;-64
2023/04/22 12:12:10;;;;;;;6.13;2.90;;;;;;;;;;5053775;28;20025;-63
2023/04/22 12:14:36;;;;;;;12.05;3.08;;;;;;;;;;5054078;28;20037;-63
2023/04/22 12:17:04;;;;;;;9.82;3.58;;;;;;;;;;5054111;28;20021;-64
2023/04/22 12:19:30;;;;;;;9.65;3.78;;;;;;;;;;5053682;28;20795;-64
2023/04/22 12:21:57;;;;;;;5.63;2.55;;;;;;;;;;5054278;28;20435;-63
2023/04/22 12:24:27;;;;;;;8.65;3.15;;;;;;;;;;5054024;28;20029;-64
2023/04/22 12:26:54;;;;;;;7.13;2.50;;;;;;;;;;5053566;28;20021;-64
2023/04/22 12:29:27;;;;;;;5.38;2.50;;;;;;;;;;5053615;28;20283;-64
2023/04/22 12:31:53;;;;;;;12.77;2.90;;;;;;;;;;5053608;28;20032;-64
2023/04/22 12:34:20;;;;;;;6.80;2.78;;;;;;;;;;5053516;28;20474;-64
2023/04/22 12:36:46;;;;;;;7.03;3.05;;;;;;;;;;5054000;28;20033;-64
2023/04/22 12:39:14;;;;;;;11.68;2.95;;;;;;;;;;5053295;28;20465;-63
2023/04/22 12:41:40;;;;;;;6.07;2.95;;;;;;;;;;5054283;28;20025;-63
2023/04/22 12:44:09;;;;;;;6.25;2.67;;;;;;;;;;5053464;28;20078;-63
2023/04/22 12:46:36;;;;;;;7.80;3.05;;;;;;;;;;5053314;28;20032;-64
2023/04/22 12:49:02;;;;;;;6.78;2.85;;;;;;;;;;5053324;28;20046;-64
2023/04/22 12:51:28;;;;;;;5.80;2.50;;;;;;;;;;5053211;28;20428;-64
2023/04/22 12:53:55;;;;;;;5.75;2.80;;;;;;;;;;5053194;28;20477;-64
2023/04/22 12:56:21;;;;;;;6.43;2.75;;;;;;;;;;5053139;28;20515;-63
2023/04/22 12:58:47;;;;;;;8.40;2.80;;;;;;;;;;5053056;28;20029;-63
2023/04/22 13:01:14;;;;;;;6.82;2.55;;;;;;;;;;5053042;28;20031;-64
2023/04/22 13:03:40;;;;;;;7.30;2.65;;;;;;;;;;5052202;28;20024;-64
2023/04/22 13:06:06;;;;;;;5.10;2.75;;;;;;;;;;5052880;28;20021;-64
2023/04/22 13:08:33;;;;;;;8.38;2.40;;;;;;;;;;5053065;28;20043;-63
2023/04/22 13:10:59;;;;;;;8.13;2.47;;;;;;;;;;5052889;28;20021;-64
2023/04/22 13:13:25;;;;;;;6.68;2.67;;;;;;;;;;5052861;28;20478;-64
2023/04/22 13:15:52;;;;;;;8.23;2.85;;;;;;;;;;5052677;28;20090;-64
2023/04/22 13:18:18;;;;;;;11.38;3.47;;;;;;;;;;5052627;28;20142;-64
2023/04/22 13:20:46;;;;;;;6.35;2.58;;;;;;;;;;5052435;28;20486;-64
2023/04/22 13:23:13;;;;;;;8.63;2.75;;;;;;;;;;5053031;28;20021;-64
2023/04/22 13:25:40;;;;;;;7.65;2.78;;;;;;;;;;5052686;28;20024;-64
2023/04/22 13:28:06;;;;;;;5.50;2.30;;;;;;;;;;5052468;28;20379;-64
2023/04/22 13:30:32;;;;;;;9.10;2.67;;;;;;;;;;5052676;28;20051;-64
2023/04/22 13:32:59;;;;;;;8.88;2.50;;;;;;;;;;5052952;28;20024;-64
2023/04/22 13:35:25;;;;;;;6.72;2.60;;;;;;;;;;5052550;28;20041;-64
2023/04/22 13:37:51;;;;;;;8.65;2.95;;;;;;;;;;5052719;28;20029;-64
2023/04/22 13:40:18;;;;;;;6.45;2.67;;;;;;;;;;5052365;28;20424;-64
2023/04/22 13:42:44;;;;;;;7.35;2.75;;;;;;;;;;5052475;28;20039;-64
2023/04/22 13:45:10;;;;;;;6.22;2.53;;;;;;;;;;5052628;28;20020;-63
2023/04/22 13:47:37;;;;;;;9.45;3.22;;;;;;;;;;5052375;28;20033;-64
2023/04/22 13:50:04;;;;;;;8.15;2.33;;;;;;;;;;5052463;28;20485;-64
2023/04/22 13:52:31;;;;;;;9.63;3.35;;;;;;;;;;5052591;28;20020;-64
2023/04/22 13:54:57;;;;;;;5.60;2.15;;;;;;;;;;5052246;28;20037;-64
2023/04/22 13:57:24;;;;;;;6.22;2.50;;;;;;;;;;5051194;28;20400;-64
2023/04/22 13:59:51;;;;;;;7.63;2.55;;;;;;;;;;5050810;28;20027;-64
2023/04/22 14:02:17;;;;;;;9.55;2.45;;;;;;;;;;5052451;28;20380;-64
2023/04/22 14:04:43;;;;;;;5.93;2.22;;;;;;;;;;5051910;28;20478;-64
2023/04/22 14:07:10;;;;;;;6.97;2.72;;;;;;;;;;5052071;28;20378;-64
2023/04/22 14:09:36;;;;;;;6.40;2.38;;;;;;;;;;5051860;28;20021;-64
2023/04/22 14:12:03;;;;;;;7.53;2.58;;;;;;;;;;5052090;28;20054;-64
2023/04/22 14:14:29;;;;;;;7.00;2.20;;;;;;;;;;5051848;28;20029;-64
2023/04/22 14:16:56;;;;;;;10.10;3.35;;;;;;;;;;5051921;28;20039;-64
2023/04/22 14:19:23;;;;;;;10.15;3.33;;;;;;;;;;5052379;28;20055;-64
2023/04/22 14:21:50;;;;;;;9.30;2.55;;;;;;;;;;5051689;28;20024;-64
2023/04/22 14:24:18;;;;;;;8.82;2.92;;;;;;;;;;5052345;28;20397;-64
2023/04/22 14:26:44;;;;;;;9.45;2.72;;;;;;;;;;5051696;28;20485;-64
2023/04/22 14:29:10;;;;;;;4.95;2.35;;;;;;;;;;5051581;28;20041;-63
2023/04/22 14:31:37;;;;;;;7.93;3.65;;;;;;;;;;5051848;28;20410;-64
2023/04/22 14:34:03;;;;;;;9.85;2.92;;;;;;;;;;5055813;28;20035;-64
2023/04/22 14:36:30;;;;;;;8.48;2.88;;;;;;;;;;5055365;28;20025;-64